الصفحة الرئيسية
METAR-TAF:

METAR-TAF

مطار :

Palanga, لتوانيا

دائرة عرض: 55-55-12N, خط طول: 021-03E, ارتفاع: 10 متر

مراقبة الطقس الحالي

تاريخ ووقت الإصدار 41 دقيقة قبل الساعة 06:50UTC
ريح 9 عقدة من الشرق/الشمال الشرقي, الاتجاه يتراوح بين الشمال/الشمال الشرقي و الشرق
درجة الحرارة 1°درجة مئوية
الرطوبة 80%
ضغط 1022 hPa
الرؤية 10 كم أو أكثر
الغيوم لا تقل 1500 م ولا وجود لمزنة ركامية السحاب الأسود

METAR: EYPA 050650Z 06009KT 030V090 CAVOK 01/M02 Q1022

زمن: 09:31 (07:31 UTC)

توقعات

تاريخ ووقت الإصدار 2ساعات و 31 دقيقة قبل الساعة 05:00UTC
التوقعات صالحة من05 الساعة 06 UTC إلى 06 الساعة 06 UTC
ريح 12 عقدة من الشرق/الشمال الشرقي
الرؤية: 9000 متر
مؤقت
من 05 الساعة 06 UTC إلى 05 الساعة 16 UTC
ريح 16 عقدة من الشمال الشرقي تتزايد حتى 28 عقدة
غيوم متفرقة على ارتفاع 4000 قدم

TAF: EYPA 050500Z 0506/0606 06012KT 9000 NSC TEMPO 0506/0516 05016G28KT SCT040

أرصاد الطقس والتوقعات من أكثر من 4000 مطار (تقارير الطقس للمطار METAR والتنبؤ بالطقس بالمطارTAF).

المحطات المتاحة هي النقط الصفراء والحمراء على الخريطة.

حرك المؤشر فوق النقطة لمعرفة اسم المحطة.

ثم انقر لمعرفة أرصاد وتوقعات الطقس.

لتغيير الخارطة: اضغط على الأزرار الخضراء مع رمز الصليب الأسود للتكبير. على الزر الأخضر مع شرطة للتصغير، أو على الأسهم الخضراء للخرائط المجاورة.


METAR-TAF: